Time;durP1;ratioP1;P1;durP2;ratioP2;P2;SDS_P1;SDS_P2;PMS_P1;PMS_P2;Temp;Humidity;BMP_temperature;BMP_pressure;BME280_temperature;BME280_humidity;BME280_pressure;Samples;Min_cycle;Max_cycle;Signal;HPM_P1;HPM_P2
2022/08/10 00:01:21;;;;;;;;;;;18.20;99.90;;;;;;5066533;28;19913;-68
2022/08/10 00:03:47;;;;;;;;;;;18.10;99.90;;;;;;5064304;28;19916;-67
2022/08/10 00:06:13;;;;;;;;;;;18.00;99.90;;;;;;5064681;28;19923;-68
2022/08/10 00:08:39;;;;;;;;;;;18.00;99.90;;;;;;5061789;28;19912;-67
2022/08/10 00:11:04;;;;;;;;;;;17.90;99.90;;;;;;5065627;28;19959;-67
2022/08/10 00:13:30;;;;;;;;;;;17.90;99.90;;;;;;5068724;28;19912;-68
2022/08/10 00:15:55;;;;;;;;;;;17.90;99.90;;;;;;5087903;28;19927;-68
2022/08/10 00:18:22;;;;;;;;;;;17.80;99.90;;;;;;5092063;28;19969;-66
2022/08/10 00:20:48;;;;;;;;;;;17.80;99.90;;;;;;5087594;28;19934;-68
2022/08/10 00:23:13;;;;;;;;;;;17.90;99.90;;;;;;5087286;28;19912;-68
2022/08/10 00:25:39;;;;;;;;;;;18.00;99.90;;;;;;5081994;28;19959;-67
2022/08/10 00:28:04;;;;;;;;;;;18.00;99.90;;;;;;5075929;28;19931;-67
2022/08/10 00:30:30;;;;;;;;;;;18.10;99.90;;;;;;5086432;28;19919;-67
2022/08/10 00:32:55;;;;;;;;;;;18.10;99.90;;;;;;5086725;28;19918;-67
2022/08/10 00:35:21;;;;;;;;;;;18.10;99.90;;;;;;5085938;28;19959;-66
2022/08/10 00:37:46;;;;;;;;;;;18.10;99.90;;;;;;5087811;28;19920;-67
2022/08/10 00:40:12;;;;;;;;;;;18.20;99.90;;;;;;5089332;28;20478;-67
2022/08/10 00:42:37;;;;;;;;;;;18.20;99.90;;;;;;5087180;28;19924;-66
2022/08/10 00:45:03;;;;;;;;;;;18.20;99.90;;;;;;5082718;28;20118;-68
2022/08/10 00:47:29;;;;;;;;;;;18.20;99.90;;;;;;5087019;28;19912;-67
2022/08/10 00:49:54;;;;;;;;;;;18.20;99.90;;;;;;5085141;28;20007;-67
2022/08/10 00:52:20;;;;;;;;;;;18.10;99.90;;;;;;5083018;28;20217;-66
2022/08/10 00:54:46;;;;;;;;;;;18.20;99.90;;;;;;5066220;28;19920;-67
2022/08/10 00:57:13;;;;;;;;;;;18.20;99.90;;;;;;5085315;28;19916;-67
2022/08/10 00:59:38;;;;;;;;;;;18.10;99.90;;;;;;5085647;28;19916;-67
2022/08/10 01:02:04;;;;;;;;;;;18.10;99.90;;;;;;5085468;28;19995;-67
2022/08/10 01:04:30;;;;;;;;;;;18.10;99.90;;;;;;5066730;28;19924;-68
2022/08/10 01:07:01;;;;;;;;;;;18.20;99.90;;;;;;5083037;28;19962;-67
2022/08/10 01:09:33;;;;;;;;;;;18.10;99.90;;;;;;5086430;28;20353;-67
2022/08/10 01:12:04;;;;;;;;;;;18.00;99.90;;;;;;5079527;28;19920;-66
2022/08/10 01:14:48;;;;;;;;;;;18.00;99.90;;;;;;5085786;28;20037;-67
2022/08/10 01:17:20;;;;;;;;;;;18.00;99.90;;;;;;5084598;28;19918;-67
2022/08/10 01:20:05;;;;;;;;;;;17.90;99.90;;;;;;5084922;28;19988;-67
2022/08/10 01:22:36;;;;;;;;;;;17.80;99.90;;;;;;5093475;28;19908;-67
2022/08/10 01:25:10;;;;;;;;;;;17.80;99.90;;;;;;5086959;28;19920;-67
2022/08/10 01:27:39;;;;;;;;;;;17.60;99.90;;;;;;5079239;28;19966;-67
2022/08/10 01:30:08;;;;;;;;;;;17.60;99.90;;;;;;5091692;28;19920;-68
2022/08/10 01:32:39;;;;;;;;;;;17.40;99.90;;;;;;5085100;28;19912;-67
2022/08/10 01:35:10;;;;;;;;;;;17.30;99.90;;;;;;5089663;28;19946;-66
2022/08/10 01:37:38;;;;;;;;;;;17.20;99.90;;;;;;5091264;28;19920;-67
2022/08/10 01:40:06;;;;;;;;;;;17.10;99.90;;;;;;5082948;28;19912;-66
2022/08/10 01:42:33;;;;;;;;;;;17.00;99.90;;;;;;5086781;28;19912;-69
2022/08/10 01:45:01;;;;;;;;;;;17.00;99.90;;;;;;5080400;28;19918;-67
2022/08/10 01:50:17;;;;;;;;;;;16.80;99.90;;;;;;5087360;28;20277;-67
2022/08/10 01:52:44;;;;;;;;;;;16.80;99.90;;;;;;5081801;28;19934;-66
2022/08/10 01:55:12;;;;;;;;;;;16.70;99.90;;;;;;5086300;28;19934;-67
2022/08/10 01:57:38;;;;;;;;;;;16.60;99.90;;;;;;5083692;28;20358;-67
2022/08/10 02:00:05;;;;;;;;;;;16.60;99.90;;;;;;5087014;28;19920;-67
2022/08/10 02:02:32;;;;;;;;;;;16.60;99.90;;;;;;5086969;28;20392;-67
2022/08/10 02:04:58;;;;;;;;;;;16.50;99.90;;;;;;5084582;28;19974;-68
2022/08/10 02:07:26;;;;;;;;;;;16.50;99.90;;;;;;5086982;28;19912;-66
2022/08/10 02:09:53;;;;;;;;;;;16.50;99.90;;;;;;5086632;28;19912;-68
2022/08/10 02:12:20;;;;;;;;;;;16.40;99.90;;;;;;5082594;28;19978;-67
2022/08/10 02:14:49;;;;;;;;;;;16.30;99.90;;;;;;5065663;28;20302;-67
2022/08/10 02:17:35;;;;;;;;;;;16.30;99.90;;;;;;5067933;28;20480;-69
2022/08/10 02:20:02;;;;;;;;;;;16.20;99.90;;;;;;5064969;28;19916;-68
2022/08/10 02:22:28;;;;;;;;;;;16.30;99.90;;;;;;5066276;28;19912;-68
2022/08/10 02:24:54;;;;;;;;;;;16.30;99.90;;;;;;5062407;28;19920;-67
2022/08/10 02:27:22;;;;;;;;;;;16.30;99.90;;;;;;5065404;28;19919;-68
2022/08/10 02:29:48;;;;;;;;;;;16.20;99.90;;;;;;5066009;28;19917;-67
2022/08/10 02:32:14;;;;;;;;;;;16.10;99.90;;;;;;5062874;28;19935;-67
2022/08/10 02:34:40;;;;;;;;;;;16.00;99.90;;;;;;5066160;28;19924;-67
2022/08/10 02:37:06;;;;;;;;;;;16.00;99.90;;;;;;5066654;28;20381;-68
2022/08/10 02:39:33;;;;;;;;;;;15.90;99.90;;;;;;5068128;28;19912;-67
2022/08/10 02:42:09;;;;;;;;;;;15.80;99.90;;;;;;5063574;28;19965;-67
2022/08/10 02:44:44;;;;;;;;;;;15.70;99.90;;;;;;5064144;28;19919;-67
2022/08/10 02:47:10;;;;;;;;;;;15.50;99.90;;;;;;5065330;28;20382;-68
2022/08/10 02:49:39;;;;;;;;;;;15.60;99.90;;;;;;5068198;28;19919;-68
2022/08/10 02:52:08;;;;;;;;;;;15.50;99.90;;;;;;5065954;28;19924;-67
2022/08/10 02:54:38;;;;;;;;;;;15.40;99.90;;;;;;5068360;28;19920;-68
2022/08/10 02:57:07;;;;;;;;;;;15.40;99.90;;;;;;5060511;28;19913;-68
2022/08/10 02:59:42;;;;;;;;;;;15.40;99.90;;;;;;5062415;28;20397;-67
2022/08/10 03:02:10;;;;;;;;;;;15.40;99.90;;;;;;5060270;28;19913;-67
2022/08/10 03:04:38;;;;;;;;;;;15.40;99.90;;;;;;5066280;28;19974;-66
2022/08/10 03:07:07;;;;;;;;;;;15.40;99.90;;;;;;5062885;28;20281;-66
2022/08/10 03:09:33;;;;;;;;;;;15.40;99.90;;;;;;5062804;28;19913;-67
2022/08/10 03:12:00;;;;;;;;;;;15.40;99.90;;;;;;5066148;28;20449;-68
2022/08/10 03:14:26;;;;;;;;;;;15.40;99.90;;;;;;5071813;28;19927;-68
2022/08/10 03:16:55;;;;;;;;;;;15.30;99.90;;;;;;5084495;28;19918;-68
2022/08/10 03:19:22;;;;;;;;;;;15.20;99.90;;;;;;5084004;28;19911;-66
2022/08/10 03:21:48;;;;;;;;;;;15.20;99.90;;;;;;5085046;28;19920;-67
2022/08/10 03:24:15;;;;;;;;;;;15.20;99.90;;;;;;5081130;28;20403;-67
2022/08/10 03:26:40;;;;;;;;;;;15.30;99.90;;;;;;5080903;28;19912;-67
2022/08/10 03:29:07;;;;;;;;;;;15.30;99.90;;;;;;5082786;28;19966;-67
2022/08/10 03:31:33;;;;;;;;;;;15.20;99.90;;;;;;5082110;28;20312;-67
2022/08/10 03:34:03;;;;;;;;;;;15.20;99.90;;;;;;5080262;28;19920;-66
2022/08/10 03:36:28;;;;;;;;;;;15.30;99.90;;;;;;5082068;28;19928;-66
2022/08/10 03:38:54;;;;;;;;;;;15.20;99.90;;;;;;5068609;28;19935;-66
2022/08/10 03:41:24;;;;;;;;;;;15.20;99.90;;;;;;5064435;28;19959;-66
2022/08/10 03:43:50;;;;;;;;;;;15.30;99.90;;;;;;5085428;28;20373;-67
2022/08/10 03:46:18;;;;;;;;;;;15.20;99.90;;;;;;5080632;28;19934;-67
2022/08/10 03:48:44;;;;;;;;;;;15.20;99.90;;;;;;5064613;28;19916;-66
2022/08/10 03:51:10;;;;;;;;;;;15.10;99.90;;;;;;5083569;28;19923;-67
2022/08/10 03:53:36;;;;;;;;;;;15.10;99.90;;;;;;5083498;28;19920;-67
2022/08/10 03:56:03;;;;;;;;;;;15.00;99.90;;;;;;5084286;28;19920;-67
2022/08/10 03:58:28;;;;;;;;;;;15.00;99.90;;;;;;5083172;28;19933;-67
2022/08/10 04:00:54;;;;;;;;;;;14.90;99.90;;;;;;5061299;28;19920;-67
2022/08/10 04:03:20;;;;;;;;;;;14.80;99.90;;;;;;5063692;28;19935;-67
2022/08/10 04:05:46;;;;;;;;;;;14.80;99.90;;;;;;5080019;28;19920;-67
2022/08/10 04:08:12;;;;;;;;;;;14.80;99.90;;;;;;5086313;28;19912;-68
2022/08/10 04:10:38;;;;;;;;;;;14.70;99.90;;;;;;5081496;28;19912;-67
2022/08/10 04:13:03;;;;;;;;;;;14.60;99.90;;;;;;5080329;28;20007;-66
2022/08/10 04:15:29;;;;;;;;;;;14.60;99.90;;;;;;5082963;28;19947;-68
2022/08/10 04:17:55;;;;;;;;;;;14.50;99.90;;;;;;5084759;28;20023;-67
2022/08/10 04:20:23;;;;;;;;;;;14.60;99.90;;;;;;5088602;28;19926;-66
2022/08/10 04:22:50;;;;;;;;;;;14.70;99.90;;;;;;5082109;28;20324;-66
2022/08/10 04:25:16;;;;;;;;;;;14.60;99.90;;;;;;5084735;28;20443;-67
2022/08/10 04:27:42;;;;;;;;;;;14.50;99.90;;;;;;5084432;28;19944;-67
2022/08/10 04:30:23;;;;;;;;;;;14.40;99.90;;;;;;5083533;28;19994;-68
2022/08/10 04:32:51;;;;;;;;;;;14.50;99.90;;;;;;5079990;28;20335;-68
2022/08/10 04:35:18;;;;;;;;;;;14.50;99.90;;;;;;5083673;28;19920;-68
2022/08/10 04:37:45;;;;;;;;;;;14.40;99.90;;;;;;5081713;28;19912;-67
2022/08/10 04:40:11;;;;;;;;;;;14.40;99.90;;;;;;5067843;28;19981;-67
2022/08/10 04:42:37;;;;;;;;;;;14.40;99.90;;;;;;5065433;28;19912;-67
2022/08/10 04:45:10;;;;;;;;;;;14.30;99.90;;;;;;5083957;28;20258;-67
2022/08/10 04:47:36;;;;;;;;;;;14.20;99.90;;;;;;5084077;28;19912;-69
2022/08/10 04:50:02;;;;;;;;;;;14.20;99.90;;;;;;5083149;28;19912;-67
2022/08/10 04:52:28;;;;;;;;;;;14.30;99.90;;;;;;5080571;28;19912;-67
2022/08/10 04:54:54;;;;;;;;;;;14.30;99.90;;;;;;5086176;28;19920;-68
2022/08/10 04:57:19;;;;;;;;;;;14.40;99.90;;;;;;5085170;28;19916;-68
2022/08/10 04:59:45;;;;;;;;;;;14.30;99.90;;;;;;5082418;28;20006;-67
2022/08/10 05:02:10;;;;;;;;;;;14.30;99.90;;;;;;5083270;28;19927;-68
2022/08/10 05:04:36;;;;;;;;;;;14.40;99.90;;;;;;5088900;28;19952;-67
2022/08/10 05:07:02;;;;;;;;;;;14.40;99.90;;;;;;5083766;28;19920;-67
2022/08/10 05:09:27;;;;;;;;;;;14.40;99.90;;;;;;5086520;28;19981;-67
2022/08/10 05:11:53;;;;;;;;;;;14.40;99.90;;;;;;5087168;28;19923;-68
2022/08/10 05:14:18;;;;;;;;;;;14.40;99.90;;;;;;5093397;28;19979;-67
2022/08/10 05:16:44;;;;;;;;;;;14.40;99.90;;;;;;5096808;28;19924;-67
2022/08/10 05:19:09;;;;;;;;;;;14.50;99.90;;;;;;5087916;28;19913;-67
2022/08/10 05:21:35;;;;;;;;;;;14.50;99.90;;;;;;5093437;28;20004;-67
2022/08/10 05:24:03;;;;;;;;;;;14.50;99.90;;;;;;5091770;28;19959;-67
2022/08/10 05:26:30;;;;;;;;;;;14.50;99.90;;;;;;5088272;28;19920;-67
2022/08/10 05:28:56;;;;;;;;;;;14.50;99.90;;;;;;5082111;28;20176;-68
2022/08/10 05:31:22;;;;;;;;;;;14.50;99.90;;;;;;5088533;28;19916;-68
2022/08/10 05:33:48;;;;;;;;;;;14.50;99.90;;;;;;5086063;28;19918;-67
2022/08/10 05:36:14;;;;;;;;;;;14.50;99.90;;;;;;5085319;28;19924;-67
2022/08/10 05:38:40;;;;;;;;;;;14.40;99.90;;;;;;5084493;28;21056;-68
2022/08/10 05:41:05;;;;;;;;;;;14.40;99.90;;;;;;5085119;28;19963;-67
2022/08/10 05:43:31;;;;;;;;;;;14.50;99.90;;;;;;5087420;28;19951;-68
2022/08/10 05:45:56;;;;;;;;;;;14.50;99.90;;;;;;5084315;28;19953;-67
2022/08/10 05:48:22;;;;;;;;;;;14.60;99.90;;;;;;5084771;28;20510;-67
2022/08/10 05:50:48;;;;;;;;;;;14.70;99.90;;;;;;5083806;28;19912;-67
2022/08/10 05:53:13;;;;;;;;;;;14.80;99.90;;;;;;5086595;28;19955;-66
2022/08/10 05:55:39;;;;;;;;;;;14.90;99.90;;;;;;5087072;28;19916;-67
2022/08/10 05:58:05;;;;;;;;;;;14.90;99.90;;;;;;5084629;28;19920;-67
2022/08/10 06:00:32;;;;;;;;;;;15.00;99.90;;;;;;5086067;28;20537;-69
2022/08/10 06:02:59;;;;;;;;;;;15.00;99.90;;;;;;5081155;28;20354;-67
2022/08/10 06:05:26;;;;;;;;;;;15.00;99.90;;;;;;5085461;28;20370;-68
2022/08/10 06:07:56;;;;;;;;;;;15.00;99.90;;;;;;5085192;28;19919;-67
2022/08/10 06:10:22;;;;;;;;;;;15.10;99.90;;;;;;5087607;28;20371;-68
2022/08/10 06:14:59;;;;;;;;;;;15.20;99.90;;;;;;5069201;28;20356;-67
2022/08/10 06:15:35;;;;;;;;;;;15.30;99.90;;;;;;5069908;28;19931;-67
2022/08/10 06:18:01;;;;;;;;;;;15.40;99.90;;;;;;5086311;28;19916;-68
2022/08/10 06:20:27;;;;;;;;;;;15.60;99.90;;;;;;5078961;28;19949;-67
2022/08/10 06:22:53;;;;;;;;;;;15.80;99.90;;;;;;5086065;28;19920;-68
2022/08/10 06:25:19;;;;;;;;;;;15.90;99.90;;;;;;5082488;28;19977;-68
2022/08/10 06:27:45;;;;;;;;;;;15.90;99.90;;;;;;5079496;28;19953;-68
2022/08/10 06:30:11;;;;;;;;;;;16.00;99.90;;;;;;5078613;28;19954;-68
2022/08/10 06:32:37;;;;;;;;;;;16.10;99.90;;;;;;5085629;28;19912;-68
2022/08/10 06:35:05;;;;;;;;;;;16.20;99.90;;;;;;5079436;28;20286;-67
2022/08/10 06:37:31;;;;;;;;;;;16.40;99.90;;;;;;5083951;28;20008;-66
2022/08/10 06:39:57;;;;;;;;;;;16.60;99.90;;;;;;5064935;28;19921;-66
2022/08/10 06:42:31;;;;;;;;;;;16.70;99.90;;;;;;5086920;28;19956;-68
2022/08/10 06:45:00;;;;;;;;;;;16.80;99.90;;;;;;5086968;28;19912;-67
2022/08/10 06:47:30;;;;;;;;;;;17.00;99.90;;;;;;5087506;28;20554;-67
2022/08/10 06:49:57;;;;;;;;;;;17.10;99.90;;;;;;5066527;28;20382;-67
2022/08/10 06:52:23;;;;;;;;;;;17.30;99.90;;;;;;5087322;28;20046;-71
2022/08/10 06:54:52;;;;;;;;;;;17.40;99.90;;;;;;5086599;28;20018;-67
2022/08/10 06:57:19;;;;;;;;;;;17.60;99.90;;;;;;5085553;28;19918;-67
2022/08/10 06:59:46;;;;;;;;;;;17.70;99.90;;;;;;5061770;28;19916;-67
2022/08/10 07:02:18;;;;;;;;;;;17.90;99.90;;;;;;5082715;28;20350;-67
2022/08/10 07:05:03;;;;;;;;;;;18.10;99.90;;;;;;5084610;28;20350;-67
2022/08/10 07:07:31;;;;;;;;;;;18.20;99.90;;;;;;5085586;28;20010;-67
2022/08/10 07:09:57;;;;;;;;;;;18.30;99.90;;;;;;5084640;28;19921;-68
2022/08/10 07:12:24;;;;;;;;;;;18.50;99.90;;;;;;5084543;28;19919;-68
2022/08/10 07:14:51;;;;;;;;;;;18.60;99.90;;;;;;5089597;28;20378;-67
2022/08/10 07:17:18;;;;;;;;;;;18.70;99.90;;;;;;5069428;28;19920;-67
2022/08/10 07:19:46;;;;;;;;;;;18.80;99.90;;;;;;5084747;28;19927;-68
2022/08/10 07:22:14;;;;;;;;;;;18.90;99.90;;;;;;5081122;28;19916;-68
2022/08/10 07:24:40;;;;;;;;;;;19.00;99.90;;;;;;5080479;28;19959;-68
2022/08/10 07:27:07;;;;;;;;;;;19.10;99.90;;;;;;5083903;28;19927;-69
2022/08/10 07:29:33;;;;;;;;;;;19.20;99.90;;;;;;5087529;28;19912;-69
2022/08/10 07:31:59;;;;;;;;;;;19.30;99.90;;;;;;5065455;28;19912;-68
2022/08/10 07:34:25;;;;;;;;;;;19.50;99.90;;;;;;5086760;28;19912;-68
2022/08/10 07:36:52;;;;;;;;;;;19.70;99.90;;;;;;5081778;28;19912;-68
2022/08/10 07:39:19;;;;;;;;;;;19.80;99.90;;;;;;5079730;28;19920;-70
2022/08/10 07:41:46;;;;;;;;;;;19.90;99.90;;;;;;5060964;28;20462;-69
2022/08/10 07:44:13;;;;;;;;;;;20.00;99.90;;;;;;5080860;28;19923;-68
2022/08/10 07:46:44;;;;;;;;;;;20.10;99.90;;;;;;5081094;28;20803;-72
2022/08/10 07:49:13;;;;;;;;;;;20.10;99.90;;;;;;5081805;28;19912;-67
2022/08/10 07:51:40;;;;;;;;;;;20.30;99.90;;;;;;5080669;28;20011;-69
2022/08/10 07:54:07;;;;;;;;;;;20.40;99.90;;;;;;5079787;28;20350;-68
2022/08/10 07:56:36;;;;;;;;;;;20.50;99.90;;;;;;5085140;28;19920;-70
2022/08/10 07:59:05;;;;;;;;;;;20.60;99.90;;;;;;5087613;28;20316;-69
2022/08/10 08:01:32;;;;;;;;;;;20.80;99.90;;;;;;5059473;28;19920;-68
2022/08/10 08:04:00;;;;;;;;;;;21.00;99.90;;;;;;5065419;28;20614;-68
2022/08/10 08:06:26;;;;;;;;;;;21.10;97.60;;;;;;5081784;28;19920;-68
2022/08/10 08:08:51;;;;;;;;;;;21.20;95.40;;;;;;5081591;28;19920;-68
2022/08/10 08:11:18;;;;;;;;;;;21.10;93.10;;;;;;5078419;28;19938;-68
2022/08/10 08:13:44;;;;;;;;;;;21.20;92.20;;;;;;5086681;28;19920;-67
2022/08/10 08:16:10;;;;;;;;;;;21.20;91.80;;;;;;5089114;28;19920;-68
2022/08/10 08:18:36;;;;;;;;;;;21.30;90.50;;;;;;5087636;28;19919;-68
2022/08/10 08:21:02;;;;;;;;;;;21.30;88.90;;;;;;5085491;28;20281;-68
2022/08/10 08:23:28;;;;;;;;;;;21.30;82.00;;;;;;5089095;28;20003;-68
2022/08/10 08:25:54;;;;;;;;;;;21.30;79.20;;;;;;5086475;28;19959;-67
2022/08/10 08:28:20;;;;;;;;;;;21.30;79.00;;;;;;5083148;28;19951;-68
2022/08/10 08:30:46;;;;;;;;;;;21.50;78.00;;;;;;5087807;28;19920;-68
2022/08/10 08:33:14;;;;;;;;;;;21.60;77.40;;;;;;5091297;28;19923;-68
2022/08/10 08:35:39;;;;;;;;;;;21.70;76.70;;;;;;5068964;28;20069;-67
2022/08/10 08:38:05;;;;;;;;;;;21.70;75.50;;;;;;5089269;28;20412;-68
2022/08/10 08:40:35;;;;;;;;;;;21.70;75.80;;;;;;5093283;28;19958;-68
2022/08/10 08:43:10;;;;;;;;;;;21.80;76.60;;;;;;5076178;28;19913;-68
2022/08/10 08:45:41;;;;;;;;;;;21.90;75.40;;;;;;5091096;28;19912;-68
2022/08/10 08:48:18;;;;;;;;;;;22.00;73.80;;;;;;5090282;28;19965;-68
2022/08/10 08:51:19;;;;;;;;;;;22.20;73.20;;;;;;5088934;28;19951;-68
2022/08/10 08:53:47;;;;;;;;;;;22.20;71.40;;;;;;4988393;28;19923;-68
2022/08/10 08:56:20;;;;;;;;;;;22.30;70.40;;;;;;5069487;28;19955;-67
2022/08/10 08:59:04;;;;;;;;;;;22.30;69.10;;;;;;5087098;28;19920;-67
2022/08/10 09:01:35;;;;;;;;;;;22.40;72.80;;;;;;5089077;28;19913;-68
2022/08/10 09:04:19;;;;;;;;;;;22.60;68.40;;;;;;5076067;28;19912;-68
2022/08/10 09:06:57;;;;;;;;;;;22.80;67.20;;;;;;5087312;28;20349;-69
2022/08/10 09:09:41;;;;;;;;;;;22.80;66.20;;;;;;5090653;28;19948;-68
2022/08/10 09:12:16;;;;;;;;;;;22.90;66.60;;;;;;5083500;28;19923;-68
2022/08/10 09:14:48;;;;;;;;;;;22.90;67.40;;;;;;5073757;28;19920;-68
2022/08/10 09:17:27;;;;;;;;;;;23.00;67.10;;;;;;5091081;28;19991;-68
2022/08/10 09:20:07;;;;;;;;;;;23.20;67.20;;;;;;5090805;28;19920;-67
2022/08/10 09:22:39;;;;;;;;;;;23.30;65.80;;;;;;5086779;28;19948;-68
2022/08/10 09:25:19;;;;;;;;;;;23.20;65.60;;;;;;5088469;28;20156;-68
2022/08/10 09:27:46;;;;;;;;;;;23.20;65.80;;;;;;5087896;28;19921;-68
2022/08/10 09:30:15;;;;;;;;;;;23.30;65.90;;;;;;5074038;28;19966;-68
2022/08/10 09:32:52;;;;;;;;;;;23.30;63.90;;;;;;5080245;28;19916;-69
2022/08/10 09:35:27;;;;;;;;;;;23.50;63.60;;;;;;5091003;28;20633;-69
2022/08/10 09:37:55;;;;;;;;;;;23.60;63.20;;;;;;5093707;28;19912;-69
2022/08/10 09:40:28;;;;;;;;;;;23.70;61.20;;;;;;5088460;28;19913;-69
2022/08/10 09:42:54;;;;;;;;;;;23.80;61.00;;;;;;5086155;28;19958;-67
2022/08/10 09:45:30;;;;;;;;;;;23.80;61.80;;;;;;5085632;28;19916;-68
2022/08/10 09:48:01;;;;;;;;;;;24.00;61.50;;;;;;5084585;28;19947;-67
2022/08/10 09:50:39;;;;;;;;;;;24.00;61.40;;;;;;5083292;28;19919;-68
2022/08/10 09:53:19;;;;;;;;;;;24.10;60.50;;;;;;5086315;28;19923;-68
2022/08/10 09:56:03;;;;;;;;;;;24.10;60.40;;;;;;5085361;28;19920;-68
2022/08/10 09:58:31;;;;;;;;;;;24.20;59.80;;;;;;5082457;28;20311;-67
2022/08/10 10:01:12;;;;;;;;;;;24.20;60.10;;;;;;5077857;28;19918;-69
2022/08/10 10:03:38;;;;;;;;;;;24.20;60.70;;;;;;5086220;28;19966;-68
2022/08/10 10:06:04;;;;;;;;;;;24.30;60.10;;;;;;5082358;28;19912;-70
2022/08/10 10:08:39;;;;;;;;;;;24.40;58.50;;;;;;5067372;28;19912;-67
2022/08/10 10:11:10;;;;;;;;;;;24.50;58.50;;;;;;5086497;28;20008;-67
2022/08/10 10:13:36;;;;;;;;;;;24.50;57.40;;;;;;5083869;28;19916;-68
2022/08/10 10:16:14;;;;;;;;;;;24.50;57.00;;;;;;5081187;28;19927;-67
2022/08/10 10:18:58;;;;;;;;;;;24.80;55.60;;;;;;5074400;28;20400;-67
2022/08/10 10:21:37;;;;;;;;;;;24.80;55.90;;;;;;5085052;28;19912;-67
2022/08/10 10:24:21;;;;;;;;;;;25.00;53.50;;;;;;5064633;28;19926;-68
2022/08/10 10:26:49;;;;;;;;;;;25.20;54.40;;;;;;5083466;28;20256;-66
2022/08/10 10:29:30;;;;;;;;;;;25.30;53.20;;;;;;5081407;28;20308;-66
2022/08/10 10:31:57;;;;;;;;;;;25.30;53.10;;;;;;5084858;28;19922;-66
2022/08/10 10:34:31;;;;;;;;;;;25.40;52.60;;;;;;5080990;28;20280;-66
2022/08/10 10:36:58;;;;;;;;;;;25.50;51.00;;;;;;5079468;28;19923;-68
2022/08/10 10:39:24;;;;;;;;;;;25.50;50.50;;;;;;5081976;28;19920;-67
2022/08/10 10:41:58;;;;;;;;;;;25.50;50.30;;;;;;5084019;28;19920;-67
2022/08/10 10:44:42;;;;;;;;;;;25.60;51.00;;;;;;5082634;28;19974;-69
2022/08/10 10:47:26;;;;;;;;;;;25.70;49.40;;;;;;5081746;28;19913;-66
2022/08/10 10:50:11;;;;;;;;;;;25.80;49.40;;;;;;5076014;28;19912;-67
2022/08/10 10:52:57;;;;;;;;;;;25.70;49.90;;;;;;5080451;28;19927;-67
2022/08/10 10:55:29;;;;;;;;;;;25.80;49.60;;;;;;5081215;28;19920;-68
2022/08/10 10:58:08;;;;;;;;;;;25.90;49.40;;;;;;5078513;28;19916;-68
2022/08/10 11:00:38;;;;;;;;;;;26.00;49.20;;;;;;5062263;28;19916;-68
2022/08/10 11:03:03;;;;;;;;;;;26.10;47.00;;;;;;5078382;28;19965;-68
2022/08/10 11:05:46;;;;;;;;;;;26.00;49.20;;;;;;5084546;28;20362;-67
2022/08/10 11:08:17;;;;;;;;;;;25.90;48.50;;;;;;5076299;28;20393;-67
2022/08/10 11:10:45;;;;;;;;;;;26.00;48.00;;;;;;5080071;28;19912;-67
2022/08/10 11:13:29;;;;;;;;;;;26.00;47.90;;;;;;5075288;28;20404;-69
2022/08/10 11:16:07;;;;;;;;;;;25.90;48.40;;;;;;5077238;28;20267;-67
2022/08/10 11:18:51;;;;;;;;;;;26.10;49.10;;;;;;5079821;28;20641;-66
2022/08/10 11:21:35;;;;;;;;;;;26.20;49.20;;;;;;5065700;28;19944;-68
2022/08/10 11:24:10;;;;;;;;;;;26.30;50.10;;;;;;5079635;28;20429;-68
2022/08/10 11:26:41;;;;;;;;;;;26.40;49.00;;;;;;5081581;28;20003;-67
2022/08/10 11:29:27;;;;;;;;;;;26.30;48.40;;;;;;5084365;28;19912;-67
2022/08/10 11:32:12;;;;;;;;;;;26.40;48.10;;;;;;5023389;28;20241;-67
2022/08/10 11:34:49;;;;;;;;;;;26.60;47.70;;;;;;5082795;28;19920;-67
2022/08/10 11:37:28;;;;;;;;;;;26.50;48.10;;;;;;5077675;28;19912;-67
2022/08/10 11:40:26;;;;;;;;;;;26.60;48.50;;;;;;5076833;28;19912;-68
2022/08/10 11:43:12;;;;;;;;;;;26.50;49.00;;;;;;5019528;28;20712;-69
2022/08/10 11:45:41;;;;;;;;;;;26.50;47.70;;;;;;5080214;28;19912;-68
2022/08/10 11:48:06;;;;;;;;;;;26.60;47.60;;;;;;5077539;28;19919;-68
2022/08/10 11:50:38;;;;;;;;;;;26.70;49.20;;;;;;5074785;28;20003;-68
2022/08/10 11:53:06;;;;;;;;;;;26.70;46.10;;;;;;5074694;28;19955;-67
2022/08/10 11:55:33;;;;;;;;;;;26.80;45.70;;;;;;5078233;28;19935;-69
2022/08/10 11:58:00;;;;;;;;;;;26.90;44.70;;;;;;5077128;28;19915;-69
2022/08/10 12:00:29;;;;;;;;;;;27.00;44.10;;;;;;5077988;28;19989;-67
2022/08/10 12:02:56;;;;;;;;;;;27.10;43.20;;;;;;5077477;28;20298;-67
2022/08/10 12:05:29;;;;;;;;;;;27.20;43.30;;;;;;5076561;28;19966;-69
2022/08/10 12:07:57;;;;;;;;;;;27.30;45.00;;;;;;5079304;28;19959;-69
2022/08/10 12:10:24;;;;;;;;;;;27.20;43.50;;;;;;5081320;28;19920;-68
2022/08/10 12:12:52;;;;;;;;;;;27.20;42.90;;;;;;5076895;28;20007;-67
2022/08/10 12:15:34;;;;;;;;;;;27.20;43.20;;;;;;5082679;28;20291;-66
2022/08/10 12:18:02;;;;;;;;;;;27.20;42.50;;;;;;5077458;28;19920;-67
2022/08/10 12:20:36;;;;;;;;;;;27.30;41.10;;;;;;5078148;28;19923;-67
2022/08/10 12:23:04;;;;;;;;;;;27.40;41.60;;;;;;5056967;28;19918;-66
2022/08/10 12:25:40;;;;;;;;;;;27.50;41.90;;;;;;5080064;28;19916;-67
2022/08/10 12:28:09;;;;;;;;;;;27.60;41.80;;;;;;5086260;28;19912;-67
2022/08/10 12:30:36;;;;;;;;;;;27.70;42.00;;;;;;5083370;28;19916;-67
2022/08/10 12:33:06;;;;;;;;;;;27.70;41.80;;;;;;5059165;28;19925;-66
2022/08/10 12:35:36;;;;;;;;;;;27.70;42.00;;;;;;5080320;28;19928;-69
2022/08/10 12:38:20;;;;;;;;;;;27.70;41.10;;;;;;5081878;28;19912;-67
2022/08/10 12:40:54;;;;;;;;;;;27.80;40.70;;;;;;5080487;28;20574;-67
2022/08/10 12:43:24;;;;;;;;;;;28.00;40.30;;;;;;5081961;28;19916;-67
2022/08/10 12:46:08;;;;;;;;;;;28.00;38.60;;;;;;5079013;28;19963;-66
2022/08/10 12:48:39;;;;;;;;;;;28.00;38.40;;;;;;5078978;28;19935;-66
2022/08/10 12:51:08;;;;;;;;;;;28.10;41.00;;;;;;5082099;28;20015;-66
2022/08/10 12:53:39;;;;;;;;;;;28.10;40.20;;;;;;5077976;28;19965;-67
2022/08/10 12:56:05;;;;;;;;;;;28.20;39.70;;;;;;5073686;28;19924;-67
2022/08/10 12:58:31;;;;;;;;;;;28.10;37.60;;;;;;5074962;28;20108;-67
2022/08/10 13:00:57;;;;;;;;;;;28.30;38.60;;;;;;5081111;28;19913;-67
2022/08/10 13:03:24;;;;;;;;;;;28.30;38.20;;;;;;5075354;28;19958;-67
2022/08/10 13:05:50;;;;;;;;;;;28.20;38.70;;;;;;5084474;28;19912;-66
2022/08/10 13:11:02;;;;;;;;;;;28.30;39.20;;;;;;5080516;28;19918;-65
2022/08/10 13:13:30;;;;;;;;;;;28.30;39.10;;;;;;5081661;28;19913;-67
2022/08/10 13:15:57;;;;;;;;;;;28.50;38.50;;;;;;5073936;28;19920;-67
2022/08/10 13:18:28;;;;;;;;;;;28.50;37.80;;;;;;5076914;28;19989;-67
2022/08/10 13:20:54;;;;;;;;;;;28.50;37.60;;;;;;5075236;28;19916;-67
2022/08/10 13:23:22;;;;;;;;;;;28.40;35.40;;;;;;5087297;28;19916;-67
2022/08/10 13:25:49;;;;;;;;;;;28.40;35.70;;;;;;5082543;28;20011;-66
2022/08/10 13:28:16;;;;;;;;;;;28.30;37.00;;;;;;5079136;28;19912;-69
2022/08/10 13:30:44;;;;;;;;;;;28.40;36.50;;;;;;5080499;28;19967;-67
2022/08/10 13:33:12;;;;;;;;;;;28.50;36.00;;;;;;5076901;28;20360;-67
2022/08/10 13:35:38;;;;;;;;;;;28.40;35.60;;;;;;5082428;28;19924;-66
2022/08/10 13:38:04;;;;;;;;;;;28.50;35.60;;;;;;5089149;28;19912;-66
2022/08/10 13:40:30;;;;;;;;;;;28.60;36.90;;;;;;5069243;28;19946;-65
2022/08/10 13:42:58;;;;;;;;;;;28.50;35.70;;;;;;5088402;28;19975;-67
2022/08/10 13:45:24;;;;;;;;;;;28.60;35.40;;;;;;5083279;28;19924;-66
2022/08/10 13:47:53;;;;;;;;;;;28.70;34.70;;;;;;5084498;28;19927;-66
2022/08/10 13:50:26;;;;;;;;;;;28.80;35.10;;;;;;5080696;28;19912;-67
2022/08/10 13:52:53;;;;;;;;;;;28.80;35.70;;;;;;5058540;28;19952;-66
2022/08/10 13:55:21;;;;;;;;;;;28.90;35.60;;;;;;5065686;28;19938;-67
2022/08/10 13:57:49;;;;;;;;;;;29.00;36.20;;;;;;5078377;28;20382;-68
2022/08/10 14:00:15;;;;;;;;;;;29.20;36.80;;;;;;5074026;28;19917;-67
2022/08/10 14:03:01;;;;;;;;;;;29.10;35.90;;;;;;5075208;28;20242;-67
2022/08/10 14:05:32;;;;;;;;;;;29.20;36.30;;;;;;5080401;28;20277;-66
2022/08/10 14:07:58;;;;;;;;;;;29.00;34.20;;;;;;5073891;28;20354;-67
2022/08/10 14:10:26;;;;;;;;;;;28.90;34.80;;;;;;5078614;28;20369;-66
2022/08/10 14:12:52;;;;;;;;;;;29.00;34.60;;;;;;5081232;28;19970;-67
2022/08/10 14:15:25;;;;;;;;;;;29.10;34.70;;;;;;5075284;28;19932;-67
2022/08/10 14:17:53;;;;;;;;;;;29.10;34.60;;;;;;5073737;28;20031;-67
2022/08/10 14:20:19;;;;;;;;;;;29.30;35.30;;;;;;5077421;28;19934;-66
2022/08/10 14:22:45;;;;;;;;;;;29.20;34.00;;;;;;5077658;28;20416;-66
2022/08/10 14:25:12;;;;;;;;;;;29.30;33.60;;;;;;5074745;28;20319;-66
2022/08/10 14:27:39;;;;;;;;;;;29.40;34.30;;;;;;5070794;28;19955;-66
2022/08/10 14:30:05;;;;;;;;;;;29.50;33.80;;;;;;5075824;28;19923;-67
2022/08/10 14:32:32;;;;;;;;;;;29.40;34.40;;;;;;5059673;28;19918;-66
2022/08/10 14:35:03;;;;;;;;;;;29.30;35.10;;;;;;5078254;28;19920;-66